Monday, March 02, 2015
00:59 UTC
  |  Log In   |  Register Free
Airport Search:

Southwest Georgia Regional Airport
(KABY)

FAA data valid effective January 08, 2015 - March 05, 2015 (unless otherwise noted).

 
 
 
 
 
 
 
 
 
 
 
 
 
 

Current Aviation Weather for Southwest Georgia Regional Airport (KABY)

The most recent METAR observation for KABY was updated at: 0009
METAR Summary (Translated METAR)
KABY
012353Z 03003KT 3SM BR OVC005 10/09 A3040 RMK AO2 SLP296 T01000089 10111 20089 51007
KMGR
012255Z AUTO 02004KT 5SM BR OVC006 12/12 A3036 RMK AO2
(33.7 nm SE from KABY)
KACJ
012355Z AUTO 05005KT 1 1/2SM BR OVC002 07/07 A3040 RMK AO2
(34.5 nm NE from KABY)
TAF Summary (Translated TAF)
KABY
011734Z 0118/0218 06006KT 5SM BR OVC007 TEMPO 0118/0120 3SM BR OVC003 FM020900 06003KT 1/2SM FG OVC002 FM021600 09003KT 5SM BR OVC007
  Airport Weather Conditions for KABY

 Current Weather at ABY
50° F
Fog/Mist
Northeast winds at 3.5 mph
ABY NOAA Radar

Pressure: 30.40 in
Humidity: 93%
Wind: Northeast at 3.5 MPH (3 KT)
Dew Point: 48.0°F
Visibility: 3.00 mi


Airport Weather Forecast for KABY

Translated METAR and TAF for KABY
Translated METAR for KABY (0059 UTC 02 March 2015)
found at http://aviationweather.gov/adds/metars/
 
METAR text: KABY 020053Z 04003KT 3SM BR OVC005 10/09 A3041 RMK AO2 SLP298 T01000089
Conditions at: KABY (ALBANY , GA, US) observed 0053 UTC 02 March 2015
Temperature: 10.0°C (50°F)
Dewpoint: 8.9°C (48°F) [RH = 93%]
Pressure (altimeter): 30.41 inches Hg (1029.9 mb)
[Sea-level pressure: 1029.8 mb]
Winds: from the NE (40 degrees) at 3 MPH (3 knots; 1.6 m/s)
Visibility: 3 miles (5 km)
Ceiling: 500 feet AGL
Clouds: overcast cloud deck at 500 feet AGL
Weather: BR  (mist)
Translated TAF for KABY
Forecast for: KABY (ALBANY , GA, US)
TAF Text: KABY 012335Z 0200/0224 03004KT 5SM BR OVC005
Forecast period: 0000 to 0900 UTC 02 March 2015
Forecast type: FROM: standard forecast or significant change
Winds: from the NNE (30 degrees) at 5 MPH (4 knots; 2.1 m/s)
Visibility: 5 miles (8 km)
Ceiling: 500 feet AGL
Clouds: overcast cloud deck at 500 feet AGL
Weather: BR  (mist)
TAF Text: FM020900 00000KT 1/2SM FG OVC002
Forecast period: 0900 to 1600 UTC 02 March 2015
Forecast type: FROM: standard forecast or significant change
Winds: calm
Visibility: 0.50 miles (0.80 km)
Ceiling: 200 feet AGL
Clouds: overcast cloud deck at 200 feet AGL
Weather: FG  (fog)
TAF Text: FM021600 24003KT 5SM BR OVC007
Forecast period: 1600 UTC 02 March 2015 to 0000 UTC 03 March 2015
Forecast type: FROM: standard forecast or significant change
Winds: from the WSW (240 degrees) at 3 MPH (3 knots; 1.6 m/s)
Visibility: 5 miles (8 km)
Ceiling: 700 feet AGL
Clouds: overcast cloud deck at 700 feet AGL
Weather: BR  (mist)

Find All Airport Services Find A Hotel Find A Rental Car Find A Golf Course Find A Restaurant $100 Hamburger



FBO's on the Field
FBO Company Facility Photos Services Transportation Aviation Fuel Prices: Prices include tax
Catering Weather Repair Courtesy Rental Type 100LL JetA JetA+ MOGAS 8087
 
Eagles of America, Inc. - ABY

Currently rated 5 by 1 person
FS:Epic
Last Updated: Feb-05
Login to update fuel prices
SS:
Contact Eagles of America, Inc. - ABYMore FBO Information
 
Add another FBO Facility Photos Catering Weather Repair Courtesy Rental Type 100LL JetA JetA+ MOGAS 8087
Services Transportation Aviation Fuel Prices: Prices include tax


model-print
model-print
model-print
model-print